sensor_id;sensor_type;location;lat;lon;timestamp;P1;durP1;ratioP1;P2;durP2;ratioP2
28335;SDS011;15592;53.656;7.276;2023-03-01T00:01:58;15.82;;;11.63;;
28335;SDS011;15592;53.656;7.276;2023-03-01T00:04:24;17.98;;;11.60;;
28335;SDS011;15592;53.656;7.276;2023-03-01T00:06:49;17.30;;;11.27;;
28335;SDS011;15592;53.656;7.276;2023-03-01T00:09:15;17.38;;;11.60;;
28335;SDS011;15592;53.656;7.276;2023-03-01T00:11:42;17.25;;;11.95;;
28335;SDS011;15592;53.656;7.276;2023-03-01T00:14:08;18.40;;;12.00;;
28335;SDS011;15592;53.656;7.276;2023-03-01T00:16:41;18.40;;;12.23;;
28335;SDS011;15592;53.656;7.276;2023-03-01T00:19:09;21.77;;;14.30;;
28335;SDS011;15592;53.656;7.276;2023-03-01T00:21:37;22.10;;;14.60;;
28335;SDS011;15592;53.656;7.276;2023-03-01T00:24:03;22.73;;;14.65;;
28335;SDS011;15592;53.656;7.276;2023-03-01T00:26:28;24.80;;;15.60;;
28335;SDS011;15592;53.656;7.276;2023-03-01T00:28:56;23.05;;;14.43;;
28335;SDS011;15592;53.656;7.276;2023-03-01T00:31:24;25.15;;;14.60;;
28335;SDS011;15592;53.656;7.276;2023-03-01T00:33:52;24.58;;;14.80;;
28335;SDS011;15592;53.656;7.276;2023-03-01T00:36:23;24.15;;;14.88;;
28335;SDS011;15592;53.656;7.276;2023-03-01T00:38:50;24.48;;;14.68;;
28335;SDS011;15592;53.656;7.276;2023-03-01T00:41:17;25.67;;;15.85;;
28335;SDS011;15592;53.656;7.276;2023-03-01T00:43:44;24.13;;;15.35;;
28335;SDS011;15592;53.656;7.276;2023-03-01T00:46:15;27.83;;;17.27;;
28335;SDS011;15592;53.656;7.276;2023-03-01T00:48:42;28.20;;;16.60;;
28335;SDS011;15592;53.656;7.276;2023-03-01T00:51:12;27.50;;;16.65;;
28335;SDS011;15592;53.656;7.276;2023-03-01T00:53:40;24.50;;;15.88;;
28335;SDS011;15592;53.656;7.276;2023-03-01T00:56:07;27.15;;;16.92;;
28335;SDS011;15592;53.656;7.276;2023-03-01T00:58:37;28.27;;;16.67;;
28335;SDS011;15592;53.656;7.276;2023-03-01T01:03:42;25.80;;;15.05;;
28335;SDS011;15592;53.656;7.276;2023-03-01T01:06:16;29.52;;;17.33;;
28335;SDS011;15592;53.656;7.276;2023-03-01T01:09:03;28.10;;;16.55;;
28335;SDS011;15592;53.656;7.276;2023-03-01T01:11:30;29.08;;;17.23;;
28335;SDS011;15592;53.656;7.276;2023-03-01T01:13:56;27.85;;;16.45;;
28335;SDS011;15592;53.656;7.276;2023-03-01T01:16:23;28.70;;;17.23;;
28335;SDS011;15592;53.656;7.276;2023-03-01T01:18:50;27.65;;;16.65;;
28335;SDS011;15592;53.656;7.276;2023-03-01T01:21:17;30.08;;;17.83;;
28335;SDS011;15592;53.656;7.276;2023-03-01T01:23:44;26.85;;;17.02;;
28335;SDS011;15592;53.656;7.276;2023-03-01T01:26:12;25.45;;;16.08;;
28335;SDS011;15592;53.656;7.276;2023-03-01T01:28:47;28.50;;;16.08;;
28335;SDS011;15592;53.656;7.276;2023-03-01T01:31:13;30.08;;;17.27;;
28335;SDS011;15592;53.656;7.276;2023-03-01T01:33:39;27.58;;;17.05;;
28335;SDS011;15592;53.656;7.276;2023-03-01T01:36:05;27.90;;;17.45;;
28335;SDS011;15592;53.656;7.276;2023-03-01T01:38:32;25.52;;;16.13;;
28335;SDS011;15592;53.656;7.276;2023-03-01T01:40:58;29.10;;;16.95;;
28335;SDS011;15592;53.656;7.276;2023-03-01T01:43:25;23.13;;;14.63;;
28335;SDS011;15592;53.656;7.276;2023-03-01T01:46:00;21.80;;;13.15;;
28335;SDS011;15592;53.656;7.276;2023-03-01T01:48:32;19.77;;;12.27;;
28335;SDS011;15592;53.656;7.276;2023-03-01T01:51:13;19.75;;;12.77;;
28335;SDS011;15592;53.656;7.276;2023-03-01T01:53:41;21.65;;;13.43;;
28335;SDS011;15592;53.656;7.276;2023-03-01T01:56:11;24.80;;;14.82;;
28335;SDS011;15592;53.656;7.276;2023-03-01T01:58:40;21.02;;;13.50;;
28335;SDS011;15592;53.656;7.276;2023-03-01T02:01:08;25.35;;;14.68;;
28335;SDS011;15592;53.656;7.276;2023-03-01T02:03:34;23.45;;;14.50;;
28335;SDS011;15592;53.656;7.276;2023-03-01T02:06:10;23.15;;;14.07;;
28335;SDS011;15592;53.656;7.276;2023-03-01T02:08:47;23.33;;;14.07;;
28335;SDS011;15592;53.656;7.276;2023-03-01T02:11:15;19.92;;;12.38;;
28335;SDS011;15592;53.656;7.276;2023-03-01T02:13:43;21.15;;;12.90;;
28335;SDS011;15592;53.656;7.276;2023-03-01T02:16:10;19.90;;;12.05;;
28335;SDS011;15592;53.656;7.276;2023-03-01T02:18:38;20.00;;;12.70;;
28335;SDS011;15592;53.656;7.276;2023-03-01T02:23:50;23.48;;;13.25;;
28335;SDS011;15592;53.656;7.276;2023-03-01T02:26:18;21.75;;;12.88;;
28335;SDS011;15592;53.656;7.276;2023-03-01T02:28:54;21.83;;;13.10;;
28335;SDS011;15592;53.656;7.276;2023-03-01T02:31:20;20.83;;;12.60;;
28335;SDS011;15592;53.656;7.276;2023-03-01T02:34:04;19.75;;;12.10;;
28335;SDS011;15592;53.656;7.276;2023-03-01T02:36:34;19.17;;;11.93;;
28335;SDS011;15592;53.656;7.276;2023-03-01T02:39:03;19.30;;;11.25;;
28335;SDS011;15592;53.656;7.276;2023-03-01T02:41:40;19.67;;;10.93;;
28335;SDS011;15592;53.656;7.276;2023-03-01T02:44:08;17.07;;;10.07;;
28335;SDS011;15592;53.656;7.276;2023-03-01T02:46:33;16.95;;;9.73;;
28335;SDS011;15592;53.656;7.276;2023-03-01T02:49:30;18.55;;;10.57;;
28335;SDS011;15592;53.656;7.276;2023-03-01T02:57:28;18.45;;;10.43;;
28335;SDS011;15592;53.656;7.276;2023-03-01T02:59:56;22.33;;;12.38;;
28335;SDS011;15592;53.656;7.276;2023-03-01T03:02:29;21.07;;;11.97;;
28335;SDS011;15592;53.656;7.276;2023-03-01T03:07:56;24.58;;;14.15;;
28335;SDS011;15592;53.656;7.276;2023-03-01T03:10:24;24.92;;;13.85;;
28335;SDS011;15592;53.656;7.276;2023-03-01T03:12:53;25.25;;;14.40;;
28335;SDS011;15592;53.656;7.276;2023-03-01T03:15:20;22.58;;;13.10;;
28335;SDS011;15592;53.656;7.276;2023-03-01T03:17:47;22.73;;;13.02;;
28335;SDS011;15592;53.656;7.276;2023-03-01T03:20:14;21.05;;;12.40;;
28335;SDS011;15592;53.656;7.276;2023-03-01T03:22:44;20.05;;;12.88;;
28335;SDS011;15592;53.656;7.276;2023-03-01T03:25:11;18.52;;;11.32;;
28335;SDS011;15592;53.656;7.276;2023-03-01T03:27:37;17.58;;;10.45;;
28335;SDS011;15592;53.656;7.276;2023-03-01T03:30:05;19.02;;;11.20;;
28335;SDS011;15592;53.656;7.276;2023-03-01T03:35:06;23.55;;;12.40;;
28335;SDS011;15592;53.656;7.276;2023-03-01T03:37:36;22.63;;;13.10;;
28335;SDS011;15592;53.656;7.276;2023-03-01T03:40:26;22.17;;;13.50;;
28335;SDS011;15592;53.656;7.276;2023-03-01T03:42:53;24.73;;;13.50;;
28335;SDS011;15592;53.656;7.276;2023-03-01T03:45:19;22.33;;;12.88;;
28335;SDS011;15592;53.656;7.276;2023-03-01T03:47:45;20.45;;;12.15;;
28335;SDS011;15592;53.656;7.276;2023-03-01T03:50:11;23.20;;;13.13;;
28335;SDS011;15592;53.656;7.276;2023-03-01T03:52:38;27.60;;;13.70;;
28335;SDS011;15592;53.656;7.276;2023-03-01T03:55:04;24.45;;;13.48;;
28335;SDS011;15592;53.656;7.276;2023-03-01T03:57:39;22.95;;;12.70;;
28335;SDS011;15592;53.656;7.276;2023-03-01T04:00:07;29.60;;;14.65;;
28335;SDS011;15592;53.656;7.276;2023-03-01T04:02:42;32.58;;;15.32;;
28335;SDS011;15592;53.656;7.276;2023-03-01T04:05:08;27.27;;;14.43;;
28335;SDS011;15592;53.656;7.276;2023-03-01T04:07:35;26.85;;;14.35;;
28335;SDS011;15592;53.656;7.276;2023-03-01T04:10:02;29.33;;;14.65;;
28335;SDS011;15592;53.656;7.276;2023-03-01T04:12:29;31.63;;;16.00;;
28335;SDS011;15592;53.656;7.276;2023-03-01T04:14:55;31.85;;;16.83;;
28335;SDS011;15592;53.656;7.276;2023-03-01T04:17:20;32.33;;;17.38;;
28335;SDS011;15592;53.656;7.276;2023-03-01T04:19:46;30.60;;;15.43;;
28335;SDS011;15592;53.656;7.276;2023-03-01T04:22:14;30.95;;;17.98;;
28335;SDS011;15592;53.656;7.276;2023-03-01T04:24:42;35.67;;;17.92;;
28335;SDS011;15592;53.656;7.276;2023-03-01T04:27:08;36.90;;;18.00;;
28335;SDS011;15592;53.656;7.276;2023-03-01T04:29:34;36.10;;;17.88;;
28335;SDS011;15592;53.656;7.276;2023-03-01T04:31:59;33.42;;;16.83;;
28335;SDS011;15592;53.656;7.276;2023-03-01T04:34:25;38.65;;;19.58;;
28335;SDS011;15592;53.656;7.276;2023-03-01T04:36:53;40.30;;;20.15;;
28335;SDS011;15592;53.656;7.276;2023-03-01T04:39:19;35.50;;;19.08;;
28335;SDS011;15592;53.656;7.276;2023-03-01T04:41:45;38.25;;;19.35;;
28335;SDS011;15592;53.656;7.276;2023-03-01T04:44:10;37.30;;;19.23;;
28335;SDS011;15592;53.656;7.276;2023-03-01T04:46:36;42.47;;;20.63;;
28335;SDS011;15592;53.656;7.276;2023-03-01T04:49:02;36.53;;;18.73;;
28335;SDS011;15592;53.656;7.276;2023-03-01T04:51:28;36.63;;;18.38;;
28335;SDS011;15592;53.656;7.276;2023-03-01T04:53:54;34.67;;;17.85;;
28335;SDS011;15592;53.656;7.276;2023-03-01T04:56:20;32.50;;;17.10;;
28335;SDS011;15592;53.656;7.276;2023-03-01T04:58:47;34.70;;;17.00;;
28335;SDS011;15592;53.656;7.276;2023-03-01T05:01:15;34.03;;;17.60;;
28335;SDS011;15592;53.656;7.276;2023-03-01T05:03:46;33.15;;;17.42;;
28335;SDS011;15592;53.656;7.276;2023-03-01T05:06:15;29.13;;;15.35;;
28335;SDS011;15592;53.656;7.276;2023-03-01T05:08:42;34.80;;;17.23;;
28335;SDS011;15592;53.656;7.276;2023-03-01T05:11:08;31.10;;;16.17;;
28335;SDS011;15592;53.656;7.276;2023-03-01T05:13:36;32.50;;;15.60;;
28335;SDS011;15592;53.656;7.276;2023-03-01T05:16:03;32.33;;;15.27;;
28335;SDS011;15592;53.656;7.276;2023-03-01T05:18:30;31.88;;;15.77;;
28335;SDS011;15592;53.656;7.276;2023-03-01T05:23:29;31.03;;;14.97;;
28335;SDS011;15592;53.656;7.276;2023-03-01T05:25:57;34.20;;;17.38;;
28335;SDS011;15592;53.656;7.276;2023-03-01T05:28:24;33.92;;;16.80;;
28335;SDS011;15592;53.656;7.276;2023-03-01T05:30:51;33.47;;;16.45;;
28335;SDS011;15592;53.656;7.276;2023-03-01T05:33:17;34.40;;;15.52;;
28335;SDS011;15592;53.656;7.276;2023-03-01T05:35:44;30.48;;;15.30;;
28335;SDS011;15592;53.656;7.276;2023-03-01T05:38:12;29.15;;;14.02;;
28335;SDS011;15592;53.656;7.276;2023-03-01T05:40:39;31.65;;;15.45;;
28335;SDS011;15592;53.656;7.276;2023-03-01T05:43:05;34.72;;;16.85;;
28335;SDS011;15592;53.656;7.276;2023-03-01T05:45:31;34.05;;;16.25;;
28335;SDS011;15592;53.656;7.276;2023-03-01T05:47:59;33.58;;;15.82;;
28335;SDS011;15592;53.656;7.276;2023-03-01T05:50:26;29.15;;;14.73;;
28335;SDS011;15592;53.656;7.276;2023-03-01T05:55:27;28.70;;;13.95;;
28335;SDS011;15592;53.656;7.276;2023-03-01T05:57:53;27.58;;;13.38;;
28335;SDS011;15592;53.656;7.276;2023-03-01T06:00:20;29.25;;;14.35;;
28335;SDS011;15592;53.656;7.276;2023-03-01T06:02:47;28.60;;;14.57;;
28335;SDS011;15592;53.656;7.276;2023-03-01T06:05:14;25.95;;;13.07;;
28335;SDS011;15592;53.656;7.276;2023-03-01T06:07:40;27.48;;;13.00;;
28335;SDS011;15592;53.656;7.276;2023-03-01T06:10:07;25.55;;;12.63;;
28335;SDS011;15592;53.656;7.276;2023-03-01T06:12:34;23.55;;;12.15;;
28335;SDS011;15592;53.656;7.276;2023-03-01T06:15:02;25.05;;;11.90;;
28335;SDS011;15592;53.656;7.276;2023-03-01T06:17:30;20.23;;;11.40;;
28335;SDS011;15592;53.656;7.276;2023-03-01T06:19:57;22.35;;;11.00;;
28335;SDS011;15592;53.656;7.276;2023-03-01T06:22:23;24.83;;;11.23;;
28335;SDS011;15592;53.656;7.276;2023-03-01T06:24:48;22.27;;;11.13;;
28335;SDS011;15592;53.656;7.276;2023-03-01T06:27:14;20.55;;;10.57;;
28335;SDS011;15592;53.656;7.276;2023-03-01T06:29:40;23.25;;;10.57;;
28335;SDS011;15592;53.656;7.276;2023-03-01T06:32:06;22.67;;;11.40;;
28335;SDS011;15592;53.656;7.276;2023-03-01T06:34:32;25.45;;;12.48;;
28335;SDS011;15592;53.656;7.276;2023-03-01T06:36:58;28.52;;;13.70;;
28335;SDS011;15592;53.656;7.276;2023-03-01T06:39:24;27.90;;;14.02;;
28335;SDS011;15592;53.656;7.276;2023-03-01T06:41:49;32.55;;;15.50;;
28335;SDS011;15592;53.656;7.276;2023-03-01T06:44:15;32.35;;;15.45;;
28335;SDS011;15592;53.656;7.276;2023-03-01T06:46:41;31.33;;;15.80;;
28335;SDS011;15592;53.656;7.276;2023-03-01T06:49:06;34.53;;;16.60;;
28335;SDS011;15592;53.656;7.276;2023-03-01T06:51:34;35.13;;;17.52;;
28335;SDS011;15592;53.656;7.276;2023-03-01T06:54:01;36.85;;;18.02;;
28335;SDS011;15592;53.656;7.276;2023-03-01T06:56:28;38.92;;;18.35;;
28335;SDS011;15592;53.656;7.276;2023-03-01T06:58:54;36.60;;;18.02;;
28335;SDS011;15592;53.656;7.276;2023-03-01T07:01:20;39.38;;;17.77;;
28335;SDS011;15592;53.656;7.276;2023-03-01T07:03:45;38.85;;;18.90;;
28335;SDS011;15592;53.656;7.276;2023-03-01T07:06:11;40.83;;;18.83;;
28335;SDS011;15592;53.656;7.276;2023-03-01T07:08:36;38.53;;;17.10;;
28335;SDS011;15592;53.656;7.276;2023-03-01T07:11:02;39.03;;;18.38;;
28335;SDS011;15592;53.656;7.276;2023-03-01T07:13:28;35.65;;;16.55;;
28335;SDS011;15592;53.656;7.276;2023-03-01T07:15:54;37.30;;;16.40;;
28335;SDS011;15592;53.656;7.276;2023-03-01T07:18:20;34.50;;;16.90;;
28335;SDS011;15592;53.656;7.276;2023-03-01T07:20:45;37.63;;;16.67;;
28335;SDS011;15592;53.656;7.276;2023-03-01T07:23:11;31.85;;;15.18;;
28335;SDS011;15592;53.656;7.276;2023-03-01T07:25:37;33.67;;;15.23;;
28335;SDS011;15592;53.656;7.276;2023-03-01T07:28:02;29.85;;;13.88;;
28335;SDS011;15592;53.656;7.276;2023-03-01T07:30:28;29.23;;;13.98;;
28335;SDS011;15592;53.656;7.276;2023-03-01T07:32:54;32.50;;;14.80;;
28335;SDS011;15592;53.656;7.276;2023-03-01T07:35:22;29.45;;;14.90;;
28335;SDS011;15592;53.656;7.276;2023-03-01T07:37:47;29.58;;;13.23;;
28335;SDS011;15592;53.656;7.276;2023-03-01T07:40:13;24.88;;;12.60;;
28335;SDS011;15592;53.656;7.276;2023-03-01T07:42:39;27.42;;;13.90;;
28335;SDS011;15592;53.656;7.276;2023-03-01T07:45:05;27.23;;;14.00;;
28335;SDS011;15592;53.656;7.276;2023-03-01T07:47:31;25.65;;;12.50;;
28335;SDS011;15592;53.656;7.276;2023-03-01T07:49:57;26.80;;;12.35;;
28335;SDS011;15592;53.656;7.276;2023-03-01T07:52:23;24.63;;;12.88;;
28335;SDS011;15592;53.656;7.276;2023-03-01T07:54:48;23.23;;;11.93;;
28335;SDS011;15592;53.656;7.276;2023-03-01T07:57:14;24.63;;;12.55;;
28335;SDS011;15592;53.656;7.276;2023-03-01T07:59:40;23.00;;;11.95;;
28335;SDS011;15592;53.656;7.276;2023-03-01T08:02:05;24.52;;;12.40;;
28335;SDS011;15592;53.656;7.276;2023-03-01T08:04:31;22.33;;;11.50;;
28335;SDS011;15592;53.656;7.276;2023-03-01T08:06:57;27.98;;;14.25;;
28335;SDS011;15592;53.656;7.276;2023-03-01T08:09:23;32.03;;;16.00;;
28335;SDS011;15592;53.656;7.276;2023-03-01T08:11:49;32.33;;;16.17;;
28335;SDS011;15592;53.656;7.276;2023-03-01T08:14:15;31.35;;;16.13;;
28335;SDS011;15592;53.656;7.276;2023-03-01T08:16:40;32.90;;;17.55;;
28335;SDS011;15592;53.656;7.276;2023-03-01T08:19:10;36.45;;;16.83;;
28335;SDS011;15592;53.656;7.276;2023-03-01T08:21:36;33.60;;;16.33;;
28335;SDS011;15592;53.656;7.276;2023-03-01T08:24:05;33.20;;;16.45;;
28335;SDS011;15592;53.656;7.276;2023-03-01T08:26:32;34.55;;;17.15;;
28335;SDS011;15592;53.656;7.276;2023-03-01T08:28:59;41.95;;;18.75;;
28335;SDS011;15592;53.656;7.276;2023-03-01T08:31:33;35.58;;;18.38;;
28335;SDS011;15592;53.656;7.276;2023-03-01T08:34:02;38.47;;;19.05;;
28335;SDS011;15592;53.656;7.276;2023-03-01T08:36:31;42.53;;;20.10;;
28335;SDS011;15592;53.656;7.276;2023-03-01T08:38:59;40.58;;;18.38;;
28335;SDS011;15592;53.656;7.276;2023-03-01T08:41:25;37.20;;;18.70;;
28335;SDS011;15592;53.656;7.276;2023-03-01T08:43:51;42.38;;;21.75;;
28335;SDS011;15592;53.656;7.276;2023-03-01T08:46:23;37.97;;;19.38;;
28335;SDS011;15592;53.656;7.276;2023-03-01T08:48:52;38.40;;;19.48;;
28335;SDS011;15592;53.656;7.276;2023-03-01T08:51:18;48.63;;;23.25;;
28335;SDS011;15592;53.656;7.276;2023-03-01T08:53:44;45.47;;;22.90;;
28335;SDS011;15592;53.656;7.276;2023-03-01T08:56:10;47.80;;;23.08;;
28335;SDS011;15592;53.656;7.276;2023-03-01T08:58:37;43.90;;;21.92;;
28335;SDS011;15592;53.656;7.276;2023-03-01T09:01:08;51.08;;;24.67;;
28335;SDS011;15592;53.656;7.276;2023-03-01T09:03:34;51.03;;;24.30;;
28335;SDS011;15592;53.656;7.276;2023-03-01T09:06:00;56.85;;;28.63;;
28335;SDS011;15592;53.656;7.276;2023-03-01T09:08:27;54.15;;;26.75;;
28335;SDS011;15592;53.656;7.276;2023-03-01T09:10:52;46.83;;;23.92;;
28335;SDS011;15592;53.656;7.276;2023-03-01T09:13:18;47.28;;;24.10;;
28335;SDS011;15592;53.656;7.276;2023-03-01T09:15:43;44.13;;;22.60;;
28335;SDS011;15592;53.656;7.276;2023-03-01T09:18:09;39.72;;;20.85;;
28335;SDS011;15592;53.656;7.276;2023-03-01T09:20:35;36.38;;;19.70;;
28335;SDS011;15592;53.656;7.276;2023-03-01T09:23:00;32.97;;;18.13;;
28335;SDS011;15592;53.656;7.276;2023-03-01T09:25:26;33.28;;;17.80;;
28335;SDS011;15592;53.656;7.276;2023-03-01T09:27:52;27.25;;;15.75;;
28335;SDS011;15592;53.656;7.276;2023-03-01T09:30:17;30.30;;;18.02;;
28335;SDS011;15592;53.656;7.276;2023-03-01T09:32:43;36.67;;;20.83;;
28335;SDS011;15592;53.656;7.276;2023-03-01T09:35:09;36.45;;;21.75;;
28335;SDS011;15592;53.656;7.276;2023-03-01T09:37:36;36.63;;;21.10;;
28335;SDS011;15592;53.656;7.276;2023-03-01T09:40:03;36.63;;;21.15;;
28335;SDS011;15592;53.656;7.276;2023-03-01T09:42:32;32.55;;;18.92;;
28335;SDS011;15592;53.656;7.276;2023-03-01T09:45:33;42.30;;;24.23;;
28335;SDS011;15592;53.656;7.276;2023-03-01T09:47:58;38.83;;;22.45;;
28335;SDS011;15592;53.656;7.276;2023-03-01T09:50:27;37.55;;;23.33;;
28335;SDS011;15592;53.656;7.276;2023-03-01T09:53:06;39.75;;;23.98;;
28335;SDS011;15592;53.656;7.276;2023-03-01T09:55:46;38.75;;;21.90;;
28335;SDS011;15592;53.656;7.276;2023-03-01T10:04:04;48.10;;;28.55;;
28335;SDS011;15592;53.656;7.276;2023-03-01T10:09:54;45.78;;;27.42;;
28335;SDS011;15592;53.656;7.276;2023-03-01T10:12:22;54.95;;;32.55;;
28335;SDS011;15592;53.656;7.276;2023-03-01T10:17:41;59.45;;;33.42;;
28335;SDS011;15592;53.656;7.276;2023-03-01T10:22:39;45.15;;;29.17;;
28335;SDS011;15592;53.656;7.276;2023-03-01T10:25:04;41.35;;;27.65;;
28335;SDS011;15592;53.656;7.276;2023-03-01T10:28:15;49.60;;;30.77;;
28335;SDS011;15592;53.656;7.276;2023-03-01T10:30:35;55.58;;;33.13;;
28335;SDS011;15592;53.656;7.276;2023-03-01T10:33:06;47.45;;;29.27;;
28335;SDS011;15592;53.656;7.276;2023-03-01T10:35:42;44.92;;;28.88;;
28335;SDS011;15592;53.656;7.276;2023-03-01T10:43:24;49.28;;;31.23;;
28335;SDS011;15592;53.656;7.276;2023-03-01T10:45:53;47.08;;;30.42;;
28335;SDS011;15592;53.656;7.276;2023-03-01T10:48:20;46.92;;;30.77;;
28335;SDS011;15592;53.656;7.276;2023-03-01T10:53:27;44.38;;;29.38;;
28335;SDS011;15592;53.656;7.276;2023-03-01T10:55:59;42.88;;;28.92;;
28335;SDS011;15592;53.656;7.276;2023-03-01T11:00:56;39.25;;;24.58;;
28335;SDS011;15592;53.656;7.276;2023-03-01T11:03:28;36.17;;;23.23;;
28335;SDS011;15592;53.656;7.276;2023-03-01T11:06:03;32.13;;;22.50;;
28335;SDS011;15592;53.656;7.276;2023-03-01T11:08:42;34.10;;;22.98;;
28335;SDS011;15592;53.656;7.276;2023-03-01T11:14:01;24.23;;;17.52;;
28335;SDS011;15592;53.656;7.276;2023-03-01T11:19:14;24.90;;;18.83;;
28335;SDS011;15592;53.656;7.276;2023-03-01T11:22:03;25.15;;;17.48;;
28335;SDS011;15592;53.656;7.276;2023-03-01T11:27:15;23.92;;;16.20;;
28335;SDS011;15592;53.656;7.276;2023-03-01T11:29:45;22.70;;;16.10;;
28335;SDS011;15592;53.656;7.276;2023-03-01T11:32:25;28.40;;;18.35;;
28335;SDS011;15592;53.656;7.276;2023-03-01T11:40:24;23.42;;;17.42;;
28335;SDS011;15592;53.656;7.276;2023-03-01T11:42:58;24.53;;;16.57;;
28335;SDS011;15592;53.656;7.276;2023-03-01T11:45:26;23.75;;;16.75;;
28335;SDS011;15592;53.656;7.276;2023-03-01T11:48:05;24.30;;;16.75;;
28335;SDS011;15592;53.656;7.276;2023-03-01T11:50:50;22.13;;;16.02;;
28335;SDS011;15592;53.656;7.276;2023-03-01T11:56:16;21.45;;;15.55;;
28335;SDS011;15592;53.656;7.276;2023-03-01T12:10:35;22.98;;;16.13;;
28335;SDS011;15592;53.656;7.276;2023-03-01T12:13:12;25.73;;;16.38;;
28335;SDS011;15592;53.656;7.276;2023-03-01T12:24:12;22.92;;;14.73;;
28335;SDS011;15592;53.656;7.276;2023-03-01T12:27:08;19.92;;;13.40;;
28335;SDS011;15592;53.656;7.276;2023-03-01T12:29:48;21.70;;;14.80;;
28335;SDS011;15592;53.656;7.276;2023-03-01T12:32:23;18.15;;;13.88;;
28335;SDS011;15592;53.656;7.276;2023-03-01T12:34:55;22.00;;;14.73;;
28335;SDS011;15592;53.656;7.276;2023-03-01T12:40:15;21.85;;;15.25;;
28335;SDS011;15592;53.656;7.276;2023-03-01T12:45:54;20.87;;;16.00;;
28335;SDS011;15592;53.656;7.276;2023-03-01T12:51:30;22.92;;;16.30;;
28335;SDS011;15592;53.656;7.276;2023-03-01T12:53:58;22.40;;;14.93;;
28335;SDS011;15592;53.656;7.276;2023-03-01T12:56:30;24.65;;;16.95;;
28335;SDS011;15592;53.656;7.276;2023-03-01T13:07:19;22.90;;;16.35;;
28335;SDS011;15592;53.656;7.276;2023-03-01T13:10:10;21.15;;;15.77;;
28335;SDS011;15592;53.656;7.276;2023-03-01T13:17:56;18.83;;;14.43;;
28335;SDS011;15592;53.656;7.276;2023-03-01T13:21:06;22.85;;;14.65;;
28335;SDS011;15592;53.656;7.276;2023-03-01T13:31:10;19.95;;;12.98;;
28335;SDS011;15592;53.656;7.276;2023-03-01T13:33:44;19.02;;;13.48;;
28335;SDS011;15592;53.656;7.276;2023-03-01T13:44:20;18.35;;;13.27;;
28335;SDS011;15592;53.656;7.276;2023-03-01T13:54:57;17.75;;;12.75;;
28335;SDS011;15592;53.656;7.276;2023-03-01T13:57:26;18.67;;;12.77;;
28335;SDS011;15592;53.656;7.276;2023-03-01T14:00:06;19.85;;;13.40;;
28335;SDS011;15592;53.656;7.276;2023-03-01T14:02:59;20.45;;;13.63;;
28335;SDS011;15592;53.656;7.276;2023-03-01T14:05:25;21.50;;;13.25;;
28335;SDS011;15592;53.656;7.276;2023-03-01T14:07:51;18.52;;;13.07;;
28335;SDS011;15592;53.656;7.276;2023-03-01T14:10:17;16.95;;;12.57;;
28335;SDS011;15592;53.656;7.276;2023-03-01T14:12:51;18.70;;;13.30;;
28335;SDS011;15592;53.656;7.276;2023-03-01T14:15:29;19.42;;;13.48;;
28335;SDS011;15592;53.656;7.276;2023-03-01T14:20:32;15.50;;;12.07;;
28335;SDS011;15592;53.656;7.276;2023-03-01T14:23:08;14.80;;;11.48;;
28335;SDS011;15592;53.656;7.276;2023-03-01T14:25:38;14.45;;;10.82;;
28335;SDS011;15592;53.656;7.276;2023-03-01T14:28:17;14.35;;;10.60;;
28335;SDS011;15592;53.656;7.276;2023-03-01T14:30:46;15.80;;;11.00;;
28335;SDS011;15592;53.656;7.276;2023-03-01T14:33:23;14.57;;;10.23;;
28335;SDS011;15592;53.656;7.276;2023-03-01T14:36:05;14.85;;;10.43;;
28335;SDS011;15592;53.656;7.276;2023-03-01T14:38:34;16.65;;;10.95;;
28335;SDS011;15592;53.656;7.276;2023-03-01T14:41:07;15.60;;;11.07;;
28335;SDS011;15592;53.656;7.276;2023-03-01T14:43:47;13.32;;;10.50;;
28335;SDS011;15592;53.656;7.276;2023-03-01T14:46:36;13.30;;;10.90;;
28335;SDS011;15592;53.656;7.276;2023-03-01T14:51:35;14.88;;;10.95;;
28335;SDS011;15592;53.656;7.276;2023-03-01T14:54:10;14.38;;;11.30;;
28335;SDS011;15592;53.656;7.276;2023-03-01T14:57:23;14.48;;;11.68;;
28335;SDS011;15592;53.656;7.276;2023-03-01T14:59:54;16.65;;;11.65;;
28335;SDS011;15592;53.656;7.276;2023-03-01T15:02:23;18.48;;;12.52;;
28335;SDS011;15592;53.656;7.276;2023-03-01T15:04:57;15.88;;;11.93;;
28335;SDS011;15592;53.656;7.276;2023-03-01T15:07:33;17.15;;;11.80;;
28335;SDS011;15592;53.656;7.276;2023-03-01T15:10:02;15.85;;;11.60;;
28335;SDS011;15592;53.656;7.276;2023-03-01T15:12:36;16.38;;;12.20;;
28335;SDS011;15592;53.656;7.276;2023-03-01T15:17:58;18.98;;;12.18;;
28335;SDS011;15592;53.656;7.276;2023-03-01T15:20:26;14.68;;;11.77;;
28335;SDS011;15592;53.656;7.276;2023-03-01T15:22:54;15.05;;;11.23;;
28335;SDS011;15592;53.656;7.276;2023-03-01T15:25:25;20.00;;;13.23;;
28335;SDS011;15592;53.656;7.276;2023-03-01T15:28:01;15.60;;;11.95;;
28335;SDS011;15592;53.656;7.276;2023-03-01T15:30:57;16.25;;;12.63;;
28335;SDS011;15592;53.656;7.276;2023-03-01T15:33:44;16.95;;;12.35;;
28335;SDS011;15592;53.656;7.276;2023-03-01T15:36:32;17.77;;;12.60;;
28335;SDS011;15592;53.656;7.276;2023-03-01T15:41:56;16.38;;;11.95;;
28335;SDS011;15592;53.656;7.276;2023-03-01T15:44:32;20.40;;;12.85;;
28335;SDS011;15592;53.656;7.276;2023-03-01T15:47:00;19.00;;;13.02;;
28335;SDS011;15592;53.656;7.276;2023-03-01T15:49:37;15.15;;;12.00;;
28335;SDS011;15592;53.656;7.276;2023-03-01T15:55:49;18.00;;;12.70;;
28335;SDS011;15592;53.656;7.276;2023-03-01T15:58:24;16.08;;;12.18;;
28335;SDS011;15592;53.656;7.276;2023-03-01T16:00:50;15.35;;;12.02;;
28335;SDS011;15592;53.656;7.276;2023-03-01T16:05:47;12.80;;;10.40;;
28335;SDS011;15592;53.656;7.276;2023-03-01T16:08:17;12.68;;;9.88;;
28335;SDS011;15592;53.656;7.276;2023-03-01T16:10:43;15.30;;;10.85;;
28335;SDS011;15592;53.656;7.276;2023-03-01T16:13:17;11.60;;;9.75;;
28335;SDS011;15592;53.656;7.276;2023-03-01T16:16:16;11.95;;;8.85;;
28335;SDS011;15592;53.656;7.276;2023-03-01T16:18:41;13.38;;;9.45;;
28335;SDS011;15592;53.656;7.276;2023-03-01T16:21:23;12.25;;;9.10;;
28335;SDS011;15592;53.656;7.276;2023-03-01T16:24:05;11.45;;;8.32;;
28335;SDS011;15592;53.656;7.276;2023-03-01T16:26:45;13.18;;;8.43;;
28335;SDS011;15592;53.656;7.276;2023-03-01T16:29:11;13.02;;;7.95;;
28335;SDS011;15592;53.656;7.276;2023-03-01T16:31:40;14.18;;;8.07;;
28335;SDS011;15592;53.656;7.276;2023-03-01T16:34:06;9.98;;;7.80;;
28335;SDS011;15592;53.656;7.276;2023-03-01T16:36:31;12.52;;;7.55;;
28335;SDS011;15592;53.656;7.276;2023-03-01T16:38:57;8.45;;;6.07;;
28335;SDS011;15592;53.656;7.276;2023-03-01T16:41:25;9.55;;;6.20;;
28335;SDS011;15592;53.656;7.276;2023-03-01T16:43:52;12.77;;;6.95;;
28335;SDS011;15592;53.656;7.276;2023-03-01T16:46:28;9.57;;;6.25;;
28335;SDS011;15592;53.656;7.276;2023-03-01T16:48:54;9.35;;;6.18;;
28335;SDS011;15592;53.656;7.276;2023-03-01T16:51:20;7.28;;;5.45;;
28335;SDS011;15592;53.656;7.276;2023-03-01T16:53:47;7.45;;;5.63;;
28335;SDS011;15592;53.656;7.276;2023-03-01T16:56:13;6.80;;;5.00;;
28335;SDS011;15592;53.656;7.276;2023-03-01T16:58:40;6.38;;;5.78;;
28335;SDS011;15592;53.656;7.276;2023-03-01T17:01:07;10.52;;;6.88;;
28335;SDS011;15592;53.656;7.276;2023-03-01T17:03:35;8.82;;;6.72;;
28335;SDS011;15592;53.656;7.276;2023-03-01T17:06:02;8.35;;;5.60;;